Terminal Aerodrome Forecast
Issued by NWS Buffalo, NY

Home | Current Version | Previous Version | Text Only | Print | Product List | Glossary On
Versions: 1 2 3 4 5 6 7 8 9 10 11 12 13 14 15 16 17 18 19 20 21 22 23 24 25
000
FTUS41 KBUF 041736
TAFROC
TAF
KROC 041736Z 0418/0518 30007KT P6SM VCTS BKN045CB
      TEMPO 0418/0419 4SM -TSRA BKN045CB
     FM042200 27007KT P6SM VCTS BKN045CB
     FM050400 24006KT P6SM BKN045
     FM050800 26006KT P6SM BKN045 BKN200
     FM051400 28011KT P6SM BKN250=

USA.gov is the U.S. government's official web portal to all federal, state and local government web resources and services.